Time;durP1;ratioP1;P1;durP2;ratioP2;P2;SDS_P1;SDS_P2;PMS_P1;PMS_P2;Temp;Humidity;BMP_temperature;BMP_pressure;BME280_temperature;BME280_humidity;BME280_pressure;Samples;Min_cycle;Max_cycle;Signal;HPM_P1;HPM_P2
2023/06/07 00:00:41;;;;;;;27.55;12.80;;;22.00;99.90;;;;;;4911222;23;20040;-93
2023/06/07 00:03:19;;;;;;;20.98;13.20;;;21.90;99.90;;;;;;4884167;29;20136;-92
2023/06/07 00:05:46;;;;;;;15.32;11.80;;;22.00;99.90;;;;;;4867112;29;20032;-91
2023/06/07 00:08:13;;;;;;;17.73;12.05;;;22.00;99.90;;;;;;4866807;29;20048;-93
2023/06/07 00:10:40;;;;;;;18.40;11.60;;;21.90;99.90;;;;;;4870934;29;20036;-93
2023/06/07 00:13:06;;;;;;;16.95;11.90;;;21.90;99.90;;;;;;4865655;29;20025;-92
2023/06/07 00:15:33;;;;;;;25.23;11.90;;;21.80;99.90;;;;;;4874276;29;20071;-92
2023/06/07 00:18:02;;;;;;;22.02;11.00;;;21.70;99.90;;;;;;4870540;29;20028;-92
2023/06/07 00:20:30;;;;;;;21.77;12.02;;;21.60;99.90;;;;;;4885963;29;20045;-92
2023/06/07 00:22:58;;;;;;;22.05;11.43;;;21.60;99.90;;;;;;4870254;29;20020;-92
2023/06/07 00:25:24;;;;;;;19.15;11.00;;;21.50;99.90;;;;;;4885809;29;20513;-93
2023/06/07 00:27:52;;;;;;;26.60;11.25;;;21.40;99.90;;;;;;4885918;29;20040;-93
2023/06/07 00:30:19;;;;;;;18.77;10.80;;;21.30;99.90;;;;;;4870255;29;20044;-92
2023/06/07 00:32:48;;;;;;;21.48;10.80;;;21.30;99.90;;;;;;4870470;29;20076;-93
2023/06/07 00:35:15;;;;;;;21.23;10.68;;;21.20;99.90;;;;;;4885676;29;20033;-91
2023/06/07 00:37:41;;;;;;;20.52;10.27;;;21.20;99.90;;;;;;4885661;29;20032;-94
2023/06/07 00:40:09;;;;;;;18.33;11.10;;;21.20;99.90;;;;;;4870274;29;20418;-93
2023/06/07 00:42:36;;;;;;;18.13;10.60;;;21.20;99.90;;;;;;4885682;29;20123;-92
2023/06/07 00:45:02;;;;;;;21.73;9.77;;;21.20;99.90;;;;;;4870024;29;20028;-93
2023/06/07 00:47:30;;;;;;;21.13;10.48;;;21.20;99.90;;;;;;4870113;29;20033;-91
2023/06/07 00:49:56;;;;;;;19.42;9.65;;;21.10;99.90;;;;;;4870016;29;20029;-93
2023/06/07 00:52:23;;;;;;;19.85;10.02;;;21.10;99.90;;;;;;4866121;29;20490;-93
2023/06/07 00:54:51;;;;;;;15.30;9.65;;;21.10;99.90;;;;;;4866032;29;20116;-93
2023/06/07 00:57:19;;;;;;;20.83;10.23;;;21.10;99.90;;;;;;4881453;29;20040;-92
2023/06/07 00:59:46;;;;;;;19.75;10.13;;;21.10;99.90;;;;;;4865962;29;20057;-92
2023/06/07 01:02:14;;;;;;;19.50;9.18;;;21.00;99.90;;;;;;4876850;29;20052;-91
2023/06/07 01:04:42;;;;;;;16.98;9.50;;;21.00;99.90;;;;;;4884597;29;20037;-93
2023/06/07 01:07:09;;;;;;;15.45;10.20;;;21.10;99.90;;;;;;4884537;29;20041;-92
2023/06/07 01:09:40;;;;;;;23.80;9.40;;;21.10;99.90;;;;;;4884542;29;20570;-92
2023/06/07 01:12:12;;;;;;;16.60;10.25;;;21.10;99.90;;;;;;4884642;29;20072;-93
2023/06/07 01:14:40;;;;;;;29.05;10.05;;;21.10;99.90;;;;;;4884296;29;20099;-93
2023/06/07 01:17:07;;;;;;;20.58;9.25;;;21.10;99.90;;;;;;4884785;29;20123;-92
2023/06/07 01:19:36;;;;;;;21.10;9.85;;;21.10;99.90;;;;;;4884323;29;20167;-92
2023/06/07 01:22:05;;;;;;;24.65;10.00;;;21.10;99.90;;;;;;4884185;29;20029;-92
2023/06/07 01:24:42;;;;;;;17.92;10.00;;;21.10;99.90;;;;;;4869021;29;20124;-91
2023/06/07 01:27:10;;;;;;;16.80;9.75;;;21.10;99.90;;;;;;4869396;29;20092;-92
2023/06/07 01:29:37;;;;;;;12.73;9.23;;;21.10;99.90;;;;;;4869271;29;20025;-93
2023/06/07 01:32:07;;;;;;;19.85;8.70;;;21.10;99.90;;;;;;4869290;29;20123;-92
2023/06/07 01:34:34;;;;;;;18.25;9.13;;;21.00;99.90;;;;;;4869064;29;20029;-93
2023/06/07 01:37:02;;;;;;;16.80;10.40;;;21.00;99.90;;;;;;4869127;29;20084;-92
2023/06/07 01:39:31;;;;;;;24.23;10.63;;;21.00;99.90;;;;;;4869156;29;20494;-93
2023/06/07 01:41:58;;;;;;;18.50;8.85;;;21.00;99.90;;;;;;4869475;29;20165;-93
2023/06/07 01:44:26;;;;;;;16.15;8.80;;;21.00;99.90;;;;;;4868954;29;20115;-94
2023/06/07 01:46:53;;;;;;;15.30;8.43;;;21.00;99.90;;;;;;4868859;29;20551;-91
2023/06/07 01:49:20;;;;;;;16.85;9.00;;;21.00;99.90;;;;;;4868928;29;20032;-93
2023/06/07 01:51:46;;;;;;;16.35;8.98;;;21.00;99.90;;;;;;4884448;29;20032;-94
2023/06/07 01:54:16;;;;;;;18.95;9.27;;;21.00;99.90;;;;;;4868809;29;20036;-92
2023/06/07 01:57:15;;;;;;;17.73;9.85;;;21.00;99.90;;;;;;4884349;29;20490;-92
2023/06/07 02:00:18;;;;;;;16.70;9.48;;;21.00;99.90;;;;;;4868733;29;20131;-92
2023/06/07 02:02:57;;;;;;;16.30;9.50;;;21.00;99.90;;;;;;4865241;29;20131;-91
2023/06/07 02:05:34;;;;;;;18.52;9.90;;;21.00;99.90;;;;;;4884053;29;20036;-92
2023/06/07 02:08:08;;;;;;;15.75;9.32;;;21.00;99.90;;;;;;4883948;29;20032;-92
2023/06/07 02:10:38;;;;;;;18.98;10.23;;;21.00;99.90;;;;;;4883988;29;20033;-93
2023/06/07 02:13:06;;;;;;;22.13;10.90;;;21.00;99.90;;;;;;4868674;29;20036;-92
2023/06/07 02:15:35;;;;;;;16.45;9.63;;;21.00;99.90;;;;;;4868514;29;20029;-93
2023/06/07 02:18:03;;;;;;;18.88;9.95;;;21.00;99.90;;;;;;4875627;29;20140;-94
2023/06/07 02:20:31;;;;;;;15.27;9.40;;;21.00;99.90;;;;;;4883704;29;20048;-92
2023/06/07 02:22:57;;;;;;;19.05;10.73;;;21.00;99.90;;;;;;4868452;29;20025;-92
2023/06/07 02:25:27;;;;;;;19.55;11.13;;;21.00;99.90;;;;;;4868411;29;20044;-91
2023/06/07 02:27:54;;;;;;;19.65;11.20;;;21.00;99.90;;;;;;4868145;29;20025;-92
2023/06/07 02:30:21;;;;;;;15.05;10.10;;;21.00;99.90;;;;;;4868082;29;20028;-92
2023/06/07 02:32:49;;;;;;;19.15;10.95;;;21.00;99.90;;;;;;4883576;29;20033;-93
2023/06/07 02:35:18;;;;;;;21.20;11.25;;;21.00;99.90;;;;;;4867768;29;20390;-91
2023/06/07 02:37:45;;;;;;;21.15;12.02;;;21.00;99.90;;;;;;4882970;29;20039;-91
2023/06/07 02:40:13;;;;;;;21.15;11.57;;;21.00;99.90;;;;;;4868071;29;20044;-92
2023/06/07 02:42:48;;;;;;;18.63;11.20;;;21.00;99.90;;;;;;4868002;29;20025;-93
2023/06/07 02:45:15;;;;;;;21.33;11.30;;;21.00;99.90;;;;;;4883510;29;20115;-92
2023/06/07 02:47:43;;;;;;;20.70;11.23;;;20.90;99.90;;;;;;4867730;29;20492;-91
2023/06/07 02:50:10;;;;;;;28.80;11.43;;;20.90;99.90;;;;;;4883607;29;20092;-92
2023/06/07 02:52:41;;;;;;;20.85;11.18;;;20.90;99.90;;;;;;4868101;29;20085;-91
2023/06/07 02:55:10;;;;;;;17.83;11.07;;;20.90;99.90;;;;;;4883041;29;20037;-92
2023/06/07 02:57:36;;;;;;;18.27;11.10;;;20.90;99.90;;;;;;4867811;29;20025;-92
2023/06/07 03:00:13;;;;;;;18.77;11.75;;;20.90;99.90;;;;;;4867513;29;20561;-91
2023/06/07 03:02:51;;;;;;;21.60;10.82;;;20.90;99.90;;;;;;4869191;29;20526;-91
2023/06/07 03:05:18;;;;;;;21.05;11.77;;;20.90;99.90;;;;;;4867657;29;20088;-93
2023/06/07 03:07:50;;;;;;;21.40;11.25;;;20.90;99.90;;;;;;4882738;29;21270;-90
2023/06/07 03:10:17;;;;;;;23.27;11.35;;;20.90;99.90;;;;;;4883075;29;20029;-90
2023/06/07 03:12:44;;;;;;;21.70;11.70;;;20.80;99.90;;;;;;4867226;29;20032;-92
2023/06/07 03:15:10;;;;;;;18.70;11.80;;;20.80;99.90;;;;;;4867348;29;20040;-92
2023/06/07 03:17:42;;;;;;;19.67;11.77;;;20.80;99.90;;;;;;4867754;29;20028;-92
2023/06/07 03:20:11;;;;;;;21.52;12.73;;;20.80;99.90;;;;;;4867496;29;20068;-92
2023/06/07 03:22:39;;;;;;;23.25;13.65;;;20.70;99.90;;;;;;4867368;29;20493;-91
2023/06/07 03:25:09;;;;;;;23.67;13.85;;;20.80;99.90;;;;;;4883498;29;20071;-93
2023/06/07 03:27:40;;;;;;;23.30;13.90;;;20.70;99.90;;;;;;4867351;29;20376;-91
2023/06/07 03:30:20;;;;;;;23.55;13.80;;;20.80;99.90;;;;;;4882743;29;20037;-91
2023/06/07 03:32:47;;;;;;;25.00;15.52;;;20.80;99.90;;;;;;4882845;29;20116;-93
2023/06/07 03:35:24;;;;;;;27.00;15.93;;;20.80;99.90;;;;;;4867182;29;20083;-91
2023/06/07 03:37:51;;;;;;;30.65;15.55;;;20.80;99.90;;;;;;4867113;29;20029;-90
2023/06/07 03:40:29;;;;;;;31.92;15.90;;;20.80;99.90;;;;;;4867582;29;20037;-92
2023/06/07 03:42:59;;;;;;;27.75;15.77;;;20.80;99.90;;;;;;4882305;29;20032;-91
2023/06/07 03:45:28;;;;;;;32.35;15.70;;;20.90;99.90;;;;;;4882407;29;20428;-91
2023/06/07 03:48:01;;;;;;;32.40;16.98;;;20.80;99.90;;;;;;4868669;29;20112;-90
2023/06/07 03:50:29;;;;;;;33.35;17.35;;;20.80;99.90;;;;;;4867187;29;20032;-90
2023/06/07 03:52:55;;;;;;;35.05;17.75;;;20.80;99.90;;;;;;4866958;29;20115;-91
2023/06/07 03:55:23;;;;;;;35.38;18.05;;;20.80;99.90;;;;;;4882179;29;20036;-92
2023/06/07 03:57:51;;;;;;;34.05;18.60;;;20.90;99.90;;;;;;4867021;29;20491;-91
2023/06/07 04:00:18;;;;;;;35.67;19.13;;;20.90;99.90;;;;;;4866598;29;20494;-91
2023/06/07 04:02:53;;;;;;;36.95;19.25;;;20.90;99.90;;;;;;4867497;29;20124;-93
2023/06/07 04:05:20;;;;;;;40.83;20.48;;;20.90;99.90;;;;;;4866822;29;20032;-91
2023/06/07 04:07:47;;;;;;;40.58;19.92;;;21.00;99.90;;;;;;4861181;29;20053;-91
2023/06/07 04:10:14;;;;;;;38.72;20.58;;;21.00;99.90;;;;;;4863553;29;20104;-91
2023/06/07 04:12:43;;;;;;;35.17;18.73;;;21.00;99.90;;;;;;4848359;29;20032;-92
2023/06/07 04:15:11;;;;;;;37.40;19.60;;;21.00;99.90;;;;;;4848638;29;20421;-91
2023/06/07 04:17:39;;;;;;;41.22;20.50;;;21.00;99.90;;;;;;4848329;29;20388;-91
2023/06/07 04:20:09;;;;;;;33.13;17.92;;;21.00;99.90;;;;;;4848144;29;20112;-92
2023/06/07 04:22:37;;;;;;;37.17;18.55;;;21.00;99.90;;;;;;4848013;29;20075;-95
2023/06/07 04:25:06;;;;;;;31.40;16.27;;;20.90;99.90;;;;;;4863314;29;20041;-91
2023/06/07 04:27:34;;;;;;;25.50;14.35;;;20.90;99.90;;;;;;4848385;29;20033;-93
2023/06/07 04:30:02;;;;;;;25.85;14.88;;;20.90;99.90;;;;;;4848270;29;20073;-92
2023/06/07 04:32:33;;;;;;;22.10;12.25;;;20.80;99.90;;;;;;4848498;29;20033;-91
2023/06/07 04:35:00;;;;;;;20.65;12.38;;;20.70;99.90;;;;;;4848114;29;20033;-92
2023/06/07 04:37:26;;;;;;;19.38;11.65;;;20.80;99.90;;;;;;4847978;29;20041;-91
2023/06/07 04:39:55;;;;;;;21.42;13.07;;;20.80;99.90;;;;;;4848226;29;20041;-90
2023/06/07 04:42:21;;;;;;;22.92;12.77;;;20.80;99.90;;;;;;4848107;29;20033;-92
2023/06/07 04:44:50;;;;;;;24.30;12.95;;;20.80;99.90;;;;;;4848059;29;20029;-92
2023/06/07 04:47:20;;;;;;;21.25;12.73;;;20.80;99.90;;;;;;4848632;29;20029;-94
2023/06/07 04:49:53;;;;;;;17.92;11.57;;;20.80;99.90;;;;;;4848146;29;20065;-92
2023/06/07 04:52:20;;;;;;;21.50;11.65;;;20.80;99.90;;;;;;4847999;29;20559;-93
2023/06/07 04:54:56;;;;;;;19.17;11.52;;;20.90;99.90;;;;;;4848869;29;20039;-94
2023/06/07 04:57:23;;;;;;;25.00;12.52;;;20.80;99.90;;;;;;4848167;29;20039;-92
2023/06/07 04:59:52;;;;;;;22.35;12.48;;;20.90;99.90;;;;;;4849614;29;20054;-92
2023/06/07 05:02:24;;;;;;;22.48;13.02;;;20.90;99.90;;;;;;4867761;29;20088;-93
2023/06/07 05:04:53;;;;;;;24.15;12.63;;;21.00;99.90;;;;;;4869394;29;20039;-92
2023/06/07 05:07:20;;;;;;;25.83;14.52;;;21.10;99.90;;;;;;4869969;29;20081;-93
2023/06/07 05:10:02;;;;;;;23.45;12.65;;;21.10;99.90;;;;;;4884968;29;20092;-92
2023/06/07 05:12:28;;;;;;;19.05;12.35;;;21.20;99.90;;;;;;4884797;29;20039;-93
2023/06/07 05:14:56;;;;;;;23.52;12.75;;;21.20;99.90;;;;;;4869562;29;20055;-93
2023/06/07 05:17:23;;;;;;;21.85;12.88;;;21.20;99.90;;;;;;4885236;29;20029;-93
2023/06/07 05:19:53;;;;;;;24.45;13.05;;;21.30;99.90;;;;;;4870007;29;20036;-92
2023/06/07 05:22:22;;;;;;;19.90;12.57;;;21.30;99.90;;;;;;4869696;29;20098;-93
2023/06/07 05:24:51;;;;;;;20.30;12.52;;;21.40;99.90;;;;;;4869471;29;20123;-92
2023/06/07 05:27:18;;;;;;;20.20;13.05;;;21.40;99.90;;;;;;4869447;29;20514;-91
2023/06/07 05:29:45;;;;;;;23.35;13.02;;;21.50;99.90;;;;;;4869208;29;20029;-92
2023/06/07 05:32:12;;;;;;;18.55;12.43;;;21.50;99.90;;;;;;4884724;29;20521;-91
2023/06/07 05:34:39;;;;;;;22.42;13.57;;;21.60;99.90;;;;;;4869014;29;20043;-92
2023/06/07 05:37:06;;;;;;;28.45;15.18;;;21.70;99.90;;;;;;4869178;29;20028;-92
2023/06/07 05:39:33;;;;;;;29.35;16.58;;;21.70;99.90;;;;;;4884473;29;20068;-91
2023/06/07 05:41:59;;;;;;;29.05;15.82;;;21.70;99.90;;;;;;4884402;29;20025;-93
2023/06/07 05:44:27;;;;;;;32.38;17.08;;;21.80;99.90;;;;;;4869083;29;20070;-92
2023/06/07 05:46:54;;;;;;;31.20;17.20;;;21.80;99.90;;;;;;4869440;29;20051;-92
2023/06/07 05:49:20;;;;;;;29.02;16.85;;;21.80;99.90;;;;;;4869237;29;20028;-94
2023/06/07 05:51:51;;;;;;;32.38;17.50;;;21.90;99.90;;;;;;4868959;29;20113;-91
2023/06/07 05:54:17;;;;;;;36.20;17.25;;;21.90;99.90;;;;;;4869095;29;20028;-91
2023/06/07 05:56:44;;;;;;;31.48;16.73;;;21.90;99.90;;;;;;4869067;29;20084;-90
2023/06/07 05:59:11;;;;;;;33.47;16.92;;;22.00;99.90;;;;;;4879912;29;20040;-92
2023/06/07 06:01:37;;;;;;;28.90;16.70;;;21.90;99.90;;;;;;4868691;29;20049;-93
2023/06/07 06:04:04;;;;;;;31.65;15.48;;;21.80;99.90;;;;;;4868657;29;20032;-92
2023/06/07 06:06:31;;;;;;;25.02;14.75;;;21.90;99.90;;;;;;4868701;29;20033;-91
2023/06/07 06:08:58;;;;;;;24.15;15.60;;;21.80;99.90;;;;;;4868713;29;20119;-92
2023/06/07 06:11:25;;;;;;;24.73;13.82;;;21.90;99.90;;;;;;4868204;29;20498;-92
2023/06/07 06:13:55;;;;;;;25.25;14.27;;;21.80;99.90;;;;;;4884294;29;20040;-91
2023/06/07 06:16:21;;;;;;;25.67;14.43;;;21.90;99.90;;;;;;4868134;29;20482;-92
2023/06/07 06:18:48;;;;;;;21.70;14.13;;;21.80;99.90;;;;;;4880325;29;20081;-90
2023/06/07 06:21:14;;;;;;;22.25;13.98;;;21.90;99.90;;;;;;4865029;29;20080;-90
2023/06/07 06:23:41;;;;;;;19.83;12.75;;;22.00;99.90;;;;;;4849808;29;20029;-91
2023/06/07 09:52:44;;;;;;;16.08;14.85;;;24.80;99.90;;;;;;5391664;23;20060;-91
2023/06/07 09:56:36;;;;;;;16.27;14.80;;;24.80;99.90;;;;;;4932506;29;20091;-94
2023/06/07 10:05:49;;;;;;;17.77;16.15;;;24.80;99.90;;;;;;5217643;23;20056;-94
2023/06/07 10:08:31;;;;;;;18.17;16.75;;;24.90;99.90;;;;;;4907987;29;20043;-94
2023/06/07 10:11:25;;;;;;;17.98;16.77;;;25.30;99.90;;;;;;4906227;29;20039;-92
2023/06/07 10:14:18;;;;;;;17.88;16.50;;;25.30;99.90;;;;;;4903732;29;20024;-94
2023/06/07 11:11:43;;;;;;;17.23;15.70;;;25.30;99.90;;;;;;5797152;23;20051;-93
2023/06/07 11:14:11;;;;;;;16.50;15.25;;;25.50;99.90;;;;;;4901693;29;20103;-92
2023/06/07 11:16:38;;;;;;;16.75;15.65;;;25.50;99.90;;;;;;4886008;29;20091;-93
2023/06/07 11:19:12;;;;;;;15.63;14.52;;;25.30;99.90;;;;;;4901814;29;20036;-93
2023/06/07 11:21:57;;;;;;;15.95;14.63;;;25.10;99.90;;;;;;4901337;29;20047;-92
2023/06/07 11:24:24;;;;;;;16.67;15.35;;;25.20;99.90;;;;;;4901484;29;20032;-91
2023/06/07 11:26:51;;;;;;;16.50;14.98;;;25.30;99.90;;;;;;4886003;29;20429;-92
2023/06/07 11:29:19;;;;;;;16.13;14.90;;;25.10;99.90;;;;;;4885917;29;20036;-92
2023/06/07 11:31:59;;;;;;;16.55;14.90;;;24.90;99.90;;;;;;4886421;29;20054;-95
2023/06/07 11:34:30;;;;;;;15.90;14.70;;;25.00;99.90;;;;;;4886158;29;20039;-92
2023/06/07 11:37:26;;;;;;;15.95;14.77;;;24.90;99.90;;;;;;4885816;29;20032;-93
2023/06/07 11:39:59;;;;;;;16.50;14.80;;;24.90;99.90;;;;;;4793535;29;20042;-91
2023/06/07 11:42:26;;;;;;;16.00;14.90;;;25.00;99.90;;;;;;4793233;29;20121;-91
2023/06/07 11:44:52;;;;;;;16.77;15.20;;;24.90;99.90;;;;;;4793605;29;20039;-91
2023/06/07 11:47:19;;;;;;;16.52;15.18;;;25.20;99.90;;;;;;4794395;29;20516;-92
2023/06/07 11:49:46;;;;;;;16.42;15.15;;;25.10;99.90;;;;;;4793557;29;20075;-92
2023/06/07 11:52:13;;;;;;;16.10;14.82;;;25.10;99.90;;;;;;4793432;29;20034;-91
2023/06/07 11:54:43;;;;;;;16.00;14.60;;;24.90;99.90;;;;;;4793286;29;20133;-93
2023/06/07 11:57:10;;;;;;;15.55;14.45;;;25.10;99.90;;;;;;4808225;29;20493;-94
2023/06/07 11:59:36;;;;;;;16.35;15.15;;;25.30;99.90;;;;;;4793257;29;20035;-92
2023/06/07 12:02:04;;;;;;;16.67;15.38;;;25.30;99.90;;;;;;4808514;29;20031;-92
2023/06/07 12:04:30;;;;;;;16.45;15.27;;;25.60;99.90;;;;;;4808071;29;20125;-91
2023/06/07 12:06:57;;;;;;;16.70;15.30;;;25.30;99.90;;;;;;4791095;29;20035;-94
2023/06/07 12:09:23;;;;;;;16.20;15.02;;;25.40;99.90;;;;;;4807519;29;20111;-93
2023/06/07 12:11:53;;;;;;;16.80;15.60;;;25.60;99.90;;;;;;4808847;29;20063;-93
2023/06/07 12:14:38;;;;;;;17.67;16.27;;;25.50;99.90;;;;;;4809264;29;20039;-94
2023/06/07 12:17:09;;;;;;;16.75;15.13;;;25.50;99.90;;;;;;4920467;23;20351;-93
2023/06/07 12:19:49;;;;;;;16.08;14.98;;;25.70;99.90;;;;;;4912282;29;20042;-93
2023/06/07 12:22:16;;;;;;;16.70;15.50;;;26.00;99.90;;;;;;4885661;29;20505;-91
2023/06/07 12:24:43;;;;;;;17.02;15.73;;;25.80;99.90;;;;;;4884141;29;20056;-81
2023/06/07 12:27:12;;;;;;;17.25;15.90;;;25.70;99.90;;;;;;4882272;29;20060;-81
2023/06/07 12:29:39;;;;;;;16.42;15.20;;;25.50;99.90;;;;;;4866425;29;20028;-82
2023/06/07 12:32:06;;;;;;;17.30;15.95;;;25.40;99.90;;;;;;4869847;29;20505;-82
2023/06/07 12:34:32;;;;;;;16.95;15.40;;;25.60;99.90;;;;;;4866323;29;20029;-82
2023/06/07 12:36:59;;;;;;;16.48;15.18;;;26.00;99.90;;;;;;4866285;29;20037;-83
2023/06/07 12:39:29;;;;;;;17.75;16.25;;;25.80;99.90;;;;;;4850768;29;20056;-83
2023/06/07 12:41:55;;;;;;;17.00;15.70;;;25.80;99.90;;;;;;4863207;29;20128;-83
2023/06/07 12:44:23;;;;;;;17.50;15.98;;;25.40;99.90;;;;;;4864188;29;20100;-83
2023/06/07 12:46:50;;;;;;;16.33;15.18;;;25.60;99.90;;;;;;4863118;29;20038;-83
2023/06/07 12:49:16;;;;;;;18.27;16.83;;;25.50;99.90;;;;;;4863144;29;20460;-84
2023/06/07 12:51:43;;;;;;;17.92;16.25;;;25.60;99.90;;;;;;4867847;29;20492;-83
2023/06/07 12:54:10;;;;;;;17.45;16.20;;;25.50;99.90;;;;;;4881652;29;20025;-82
2023/06/07 12:56:36;;;;;;;17.70;16.15;;;25.40;99.90;;;;;;4866251;29;20180;-83
2023/06/07 12:59:03;;;;;;;16.75;15.38;;;25.20;99.90;;;;;;4881446;29;20397;-82
2023/06/07 13:01:36;;;;;;;16.55;15.35;;;25.20;99.90;;;;;;4883501;29;20045;-93
2023/06/07 13:04:06;;;;;;;17.25;16.05;;;25.30;99.90;;;;;;4866799;29;20062;-79
2023/06/07 13:06:33;;;;;;;17.05;15.85;;;25.60;99.90;;;;;;4884039;29;20033;-91
2023/06/07 13:09:07;;;;;;;17.38;16.00;;;25.80;99.90;;;;;;4866804;29;20029;-90
2023/06/07 13:11:35;;;;;;;17.05;15.50;;;25.70;99.90;;;;;;4866606;29;20025;-92
2023/06/07 13:17:47;;;;;;;16.80;15.73;;;25.70;99.90;;;;;;4836130;29;20053;-94
2023/06/07 13:20:13;;;;;;;17.27;15.88;;;25.80;99.90;;;;;;4831058;29;20110;-93
2023/06/07 13:22:42;;;;;;;17.20;15.80;;;25.70;99.90;;;;;;4838223;29;20038;-94
2023/06/07 13:26:01;;;;;;;17.45;15.95;;;25.60;99.90;;;;;;4838722;29;20041;-94
2023/06/07 13:28:28;;;;;;;17.48;16.15;;;25.80;99.90;;;;;;4831276;29;20045;-93
2023/06/07 13:30:55;;;;;;;16.77;15.50;;;25.90;99.90;;;;;;5071951;23;20124;-93
2023/06/07 13:33:22;;;;;;;17.08;15.88;;;26.30;99.90;;;;;;4884874;29;20072;-95
2023/06/07 13:35:48;;;;;;;17.25;15.90;;;26.50;99.90;;;;;;4885363;23;20052;-93
2023/06/07 13:38:15;;;;;;;17.45;15.98;;;26.50;99.90;;;;;;4908359;29;20032;-91
2023/06/07 14:41:31;;;;;;;17.10;15.90;;;24.90;99.90;;;;;;5802631;23;20047;-92
2023/06/07 16:19:59;;;;;;;15.48;14.27;;;24.20;99.90;;;;;;5161178;23;20505;-93
2023/06/07 16:22:54;;;;;;;15.98;14.68;;;24.10;99.90;;;;;;4919607;29;20082;-94
2023/06/07 16:26:05;;;;;;;;;;;;;;;;;;;;;
2023/06/07 16:29:35;;;;;;;15.80;14.60;;;23.50;99.90;;;;;;4902145;29;20040;-93
2023/06/07 16:32:43;;;;;;;;;;;23.60;99.90;;;;;;4861947;29;20488;-93
2023/06/07 16:35:44;;;;;;;;;;;;;;;;;;;;;
2023/06/07 16:39:06;;;;;;;;;;;;;;;;;;;;;
2023/06/07 16:45:52;;;;;;;;;;;;;;;;;;;;;
2023/06/07 16:48:51;;;;;;;16.10;14.90;;;23.20;99.90;;;;;;4938669;23;20044;-93
2023/06/07 16:51:30;;;;;;;15.85;14.43;;;23.30;99.90;;;;;;4812184;29;20034;-94
2023/06/07 16:54:31;;;;;;;15.93;14.43;;;23.30;99.90;;;;;;4827886;29;20125;-93
2023/06/07 17:05:14;;;;;;;;;;;;;;;;;;;;;
2023/06/07 17:44:54;;;;;;;13.40;12.20;;;22.90;99.90;;;;;;6321462;22;20049;-93
2023/06/07 17:52:11;;;;;;;14.15;12.70;;;22.90;99.90;;;;;;6224482;23;20395;-92
2023/06/07 17:54:38;;;;;;;13.30;11.90;;;22.80;99.90;;;;;;6139622;23;20446;-92
2023/06/07 17:57:07;;;;;;;14.32;12.75;;;22.70;99.90;;;;;;6167925;23;20017;-90
2023/06/07 17:59:34;;;;;;;14.90;13.05;;;22.70;99.90;;;;;;6189685;22;20018;-91
2023/06/07 18:02:02;;;;;;;14.88;12.82;;;22.70;99.90;;;;;;6235424;22;20496;-92
2023/06/07 18:04:29;;;;;;;14.70;12.88;;;22.70;99.90;;;;;;6250853;22;20004;-91
2023/06/07 18:06:56;;;;;;;17.80;12.68;;;22.60;99.90;;;;;;6246058;22;20015;-91
2023/06/07 18:09:22;;;;;;;19.75;13.48;;;22.60;99.90;;;;;;6243965;22;20100;-94
2023/06/07 18:11:49;;;;;;;16.70;13.02;;;22.50;99.90;;;;;;6237582;22;20008;-91
2023/06/07 18:14:16;;;;;;;17.13;11.75;;;22.60;99.90;;;;;;6234506;22;20023;-91
2023/06/07 18:16:44;;;;;;;16.38;11.05;;;22.50;99.90;;;;;;6234361;22;20022;-92
2023/06/07 18:19:10;;;;;;;16.27;12.07;;;22.50;99.90;;;;;;6236624;22;20008;-91
2023/06/07 18:21:44;;;;;;;16.63;12.20;;;22.50;99.90;;;;;;6237072;22;20035;-92
2023/06/07 18:24:11;;;;;;;15.10;11.77;;;22.50;99.90;;;;;;6234972;22;20008;-91
2023/06/07 18:26:37;;;;;;;13.00;11.18;;;22.50;99.90;;;;;;6234603;22;20007;-90
2023/06/07 18:29:04;;;;;;;15.95;11.57;;;22.50;99.90;;;;;;6230167;22;20012;-90
2023/06/07 18:31:30;;;;;;;12.20;11.00;;;22.50;99.90;;;;;;6227460;22;20062;-90
2023/06/07 18:33:58;;;;;;;13.23;11.20;;;22.50;99.90;;;;;;6227554;22;20004;-91
2023/06/07 18:36:25;;;;;;;12.32;11.20;;;22.50;99.90;;;;;;6227427;22;20007;-91
2023/06/07 18:38:52;;;;;;;11.73;10.40;;;22.40;99.90;;;;;;6253355;22;20008;-89
2023/06/07 18:41:19;;;;;;;12.68;10.52;;;22.40;99.90;;;;;;6227588;22;19999;-90
2023/06/07 18:43:46;;;;;;;13.57;10.65;;;22.40;99.90;;;;;;6227143;22;20008;-91
2023/06/07 18:46:16;;;;;;;12.80;11.50;;;22.40;99.90;;;;;;6227530;22;20041;-93
2023/06/07 18:49:08;;;;;;;12.50;10.98;;;22.40;99.90;;;;;;6227736;22;20094;-92
2023/06/07 18:51:38;;;;;;;12.35;11.05;;;22.30;99.90;;;;;;6228302;22;20000;-91
2023/06/07 18:54:05;;;;;;;13.43;11.43;;;22.30;99.90;;;;;;6228163;22;20011;-91
2023/06/07 18:56:31;;;;;;;12.75;11.52;;;22.30;99.90;;;;;;6239119;22;20098;-90
2023/06/07 18:58:58;;;;;;;12.73;11.18;;;22.30;99.90;;;;;;6237542;22;20007;-91
2023/06/07 19:01:25;;;;;;;13.05;11.30;;;22.30;99.90;;;;;;6227113;22;20011;-91
2023/06/07 19:03:52;;;;;;;14.05;11.20;;;22.20;99.90;;;;;;6228308;22;20082;-90
2023/06/07 19:06:19;;;;;;;12.20;10.32;;;22.20;99.90;;;;;;6228262;22;20007;-91
2023/06/07 19:08:49;;;;;;;12.90;11.20;;;22.30;99.90;;;;;;6228673;22;20011;-91
2023/06/07 19:11:20;;;;;;;11.90;10.38;;;22.30;99.90;;;;;;6231175;22;20019;-91
2023/06/07 19:13:53;;;;;;;;;;;22.20;99.90;;;;;;6229928;22;20012;-92
2023/06/07 19:16:24;;;;;;;11.02;9.80;;;22.20;99.90;;;;;;6228131;22;19942;-91
2023/06/07 19:18:50;;;;;;;11.38;10.18;;;22.20;99.90;;;;;;6226821;22;20060;-91
2023/06/07 19:21:19;;;;;;;12.60;10.73;;;22.20;99.90;;;;;;6227102;22;20429;-92
2023/06/07 19:23:49;;;;;;;15.20;10.35;;;22.20;99.90;;;;;;6229983;22;20006;-91
2023/06/07 19:26:16;;;;;;;14.00;9.63;;;22.10;99.90;;;;;;6228219;22;20497;-91
2023/06/07 19:28:43;;;;;;;12.63;10.02;;;22.10;99.90;;;;;;6227428;22;20010;-92
2023/06/07 19:31:10;;;;;;;13.10;10.18;;;22.00;99.90;;;;;;6226988;22;20012;-93
2023/06/07 19:33:37;;;;;;;14.10;10.18;;;22.00;99.90;;;;;;6227437;22;20026;-92
2023/06/07 19:36:04;;;;;;;13.75;9.82;;;22.00;99.90;;;;;;6228017;22;20016;-90
2023/06/07 19:38:30;;;;;;;13.30;10.75;;;22.00;99.90;;;;;;6226437;22;20062;-89
2023/06/07 19:40:57;;;;;;;13.05;10.05;;;21.90;99.90;;;;;;6225972;22;20429;-93
2023/06/07 19:43:27;;;;;;;13.60;10.50;;;21.90;99.90;;;;;;6227480;22;20054;-91
2023/06/07 19:45:53;;;;;;;12.98;9.90;;;21.80;99.90;;;;;;6226770;22;20015;-92
2023/06/07 19:51:20;;;;;;;13.35;10.38;;;21.80;99.90;;;;;;6237107;22;20020;31
2023/06/07 20:00:20;;;;;;;12.00;9.55;;;21.80;99.90;;;;;;6250842;22;20106;-92
2023/06/07 20:03:15;;;;;;;19.50;10.20;;;21.70;99.90;;;;;;6257509;22;20003;-93
2023/06/07 20:06:02;;;;;;;15.00;10.70;;;21.70;99.90;;;;;;6259267;22;20007;-92
2023/06/07 20:08:29;;;;;;;12.80;9.48;;;21.60;99.90;;;;;;6257137;22;20011;-91
2023/06/07 20:10:55;;;;;;;14.98;10.50;;;21.70;99.90;;;;;;6257271;22;20056;-93
2023/06/07 20:13:25;;;;;;;13.45;9.50;;;21.70;99.90;;;;;;6258001;22;20007;-93
2023/06/07 20:15:52;;;;;;;15.65;10.13;;;21.60;99.90;;;;;;6222691;23;20009;-93
2023/06/07 20:35:22;;;;;;;13.73;10.02;;;21.50;99.90;;;;;;6184497;23;20057;-91
2023/06/07 20:37:53;;;;;;;15.80;10.63;;;21.50;99.90;;;;;;6162648;23;20067;-92
2023/06/07 20:40:19;;;;;;;15.63;10.80;;;21.50;99.90;;;;;;6186065;23;20059;-94
2023/06/07 20:42:46;;;;;;;16.42;11.20;;;21.50;99.90;;;;;;6196054;23;20009;-92
2023/06/07 20:45:22;;;;;;;16.35;9.50;;;21.50;99.90;;;;;;6242600;22;20023;-94
2023/06/07 20:47:50;;;;;;;14.23;9.85;;;21.50;99.90;;;;;;6256412;22;20432;-95
2023/06/07 20:50:19;;;;;;;18.55;10.48;;;21.50;99.90;;;;;;6256724;22;20019;-92
2023/06/07 20:52:51;;;;;;;16.88;10.32;;;21.50;99.90;;;;;;6268379;22;20428;-93
2023/06/07 20:55:20;;;;;;;15.55;9.90;;;21.50;99.90;;;;;;6312759;22;20022;-94
2023/06/07 20:57:47;;;;;;;13.43;10.93;;;21.50;99.90;;;;;;6286814;22;20046;-92
2023/06/07 21:01:00;;;;;;;;;;;;;;;;;;;;;
2023/06/07 21:07:35;;;;;;;15.60;10.57;;;21.50;99.90;;;;;;6189626;23;20028;-92
2023/06/07 21:10:18;;;;;;;16.92;11.27;;;21.40;99.90;;;;;;6161439;23;20100;-93
2023/06/07 21:19:36;;;;;;;;;;;;;;;;;;;;;
2023/06/07 21:26:50;;;;;;;15.13;10.68;;;21.30;99.90;;;;;;6068111;23;20088;-93
2023/06/07 21:29:59;;;;;;;16.77;10.90;;;21.30;99.90;;;;;;5982087;23;20012;-93
2023/06/07 21:33:30;;;;;;;14.75;10.25;;;21.30;99.90;;;;;;5982871;24;20068;-93
2023/06/07 21:36:18;;;;;;;19.55;10.30;;;21.20;99.90;;;;;;5982390;23;20338;-93
2023/06/07 21:38:45;;;;;;;16.35;9.98;;;21.20;99.90;;;;;;5982485;24;20020;-92
2023/06/07 21:41:21;;;;;;;18.05;10.40;;;21.20;99.90;;;;;;5982504;23;20012;-94
2023/06/07 21:43:54;;;;;;;14.50;9.95;;;21.30;99.90;;;;;;5983060;24;20012;-93